Jamestown, Canada
Current Conditions -  °F | °C
As of 10:41 PM on Friday 24 Oct 2014 (Local Time) from CYQX Reporting Station
Moderate Rain Moderate Rain  
Wind Chill: 39°   Ceiling: 200
Heat Index: 46°   Visibility: 3mi
Dew Point: 46°   Wind: 17mph
Humidity: 100%   Direction: 50°NE
Pressure: 29.69"   Gusts: 23mph
Location:  48.43°N, 53.8°W
Report Text: CYQX 250041Z 05015G20KT 3SM RA BR BKN002 OVC011 08/08 A2969 RMK SF7SC1 SLP058
Loading
Personal Weather Stations






























Interactive Weather Map New forecast layout! Learn more

10-Day Weather Forecast

Advertisements
Track Severe Weather on mobile